Time;durP1;ratioP1;P1;durP2;ratioP2;P2;SDS_P1;SDS_P2;PMS_P1;PMS_P2;Temp;Humidity;BMP_temperature;BMP_pressure;BME280_temperature;BME280_humidity;BME280_pressure;Samples;Min_cycle;Max_cycle;Signal;HPM_P1;HPM_P2
2023/02/06 00:01:23;;;;;;;2.50;1.45;;;;;;;;;;5068141;28;20526;-48
2023/02/06 00:03:49;;;;;;;3.20;1.42;;;;;;;;;;5068368;28;20406;-46
2023/02/06 00:06:15;;;;;;;2.13;1.35;;;;;;;;;;5066240;28;20464;-47
2023/02/06 00:08:42;;;;;;;2.50;1.42;;;;;;;;;;5067853;28;20082;-46
2023/02/06 00:11:10;;;;;;;2.65;1.05;;;;;;;;;;5066529;28;20024;-45
2023/02/06 00:13:36;;;;;;;2.25;1.13;;;;;;;;;;5067628;28;20036;-48
2023/02/06 00:16:03;;;;;;;1.60;0.90;;;;;;;;;;5067691;28;20025;-48
2023/02/06 00:18:29;;;;;;;2.97;1.25;;;;;;;;;;5067020;28;20067;-47
2023/02/06 00:20:55;;;;;;;1.95;1.08;;;;;;;;;;5067570;28;20111;-46
2023/02/06 00:23:21;;;;;;;1.65;1.20;;;;;;;;;;5067376;28;20463;-47
2023/02/06 00:25:48;;;;;;;2.33;1.20;;;;;;;;;;5067088;28;20035;-46
2023/02/06 00:28:14;;;;;;;2.58;1.33;;;;;;;;;;5067486;28;20127;-47
2023/02/06 00:30:41;;;;;;;1.90;1.23;;;;;;;;;;5067196;28;20472;-47
2023/02/06 00:33:07;;;;;;;4.22;2.00;;;;;;;;;;5066953;28;20021;-46
2023/02/06 00:35:33;;;;;;;4.47;1.85;;;;;;;;;;5066864;28;20028;-46
2023/02/06 00:38:01;;;;;;;3.20;1.75;;;;;;;;;;5067290;28;20388;-46
2023/02/06 00:40:28;;;;;;;3.20;1.90;;;;;;;;;;5067107;28;20052;-48
2023/02/06 00:42:54;;;;;;;3.53;1.92;;;;;;;;;;5067653;28;20115;-46
2023/02/06 00:45:20;;;;;;;2.00;1.60;;;;;;;;;;5066945;28;20271;-47
2023/02/06 00:47:47;;;;;;;3.53;1.77;;;;;;;;;;5066757;28;20020;-47
2023/02/06 00:50:14;;;;;;;3.17;1.90;;;;;;;;;;5066797;28;20039;-49
2023/02/06 00:52:41;;;;;;;2.72;1.50;;;;;;;;;;5066446;28;20054;-48
2023/02/06 00:55:07;;;;;;;3.15;1.60;;;;;;;;;;5066583;28;20086;-45
2023/02/06 00:57:33;;;;;;;2.33;1.40;;;;;;;;;;5066568;28;20028;-45
2023/02/06 00:59:59;;;;;;;2.75;1.50;;;;;;;;;;5066131;28;20036;-47
2023/02/06 01:02:26;;;;;;;1.88;1.20;;;;;;;;;;5066952;28;20087;-45
2023/02/06 01:04:52;;;;;;;2.20;1.23;;;;;;;;;;5066506;28;20029;-48
2023/02/06 06:13:24;;;;;;;2.28;1.80;;;;;;;;;;5086324;28;20512;-48
2023/02/06 06:15:50;;;;;;;4.38;2.33;;;;;;;;;;5086748;28;20024;-48
2023/02/06 06:18:16;;;;;;;2.92;2.28;;;;;;;;;;5087137;28;20418;-46
2023/02/06 06:20:42;;;;;;;2.35;1.90;;;;;;;;;;5086760;28;20043;-46
2023/02/06 06:23:08;;;;;;;2.50;2.00;;;;;;;;;;5086400;28;20029;-46
2023/02/06 06:25:35;;;;;;;3.47;2.30;;;;;;;;;;5086750;28;20024;-46
2023/02/06 06:28:01;;;;;;;2.63;1.90;;;;;;;;;;5086804;28;20032;-49
2023/02/06 06:30:27;;;;;;;3.47;2.30;;;;;;;;;;5087172;28;20529;-46
2023/02/06 06:32:54;;;;;;;5.15;3.03;;;;;;;;;;5087184;28;20028;-46
2023/02/06 06:35:20;;;;;;;5.53;3.72;;;;;;;;;;5088421;28;20020;-45
2023/02/06 06:37:46;;;;;;;5.28;2.75;;;;;;;;;;5091092;28;20024;-45
2023/02/06 06:40:13;;;;;;;3.60;2.42;;;;;;;;;;5090778;28;20549;-46
2023/02/06 06:42:39;;;;;;;3.17;2.60;;;;;;;;;;5090748;28;20035;-46
2023/02/06 06:45:06;;;;;;;4.70;2.80;;;;;;;;;;5090622;28;20099;-46
2023/02/06 06:47:32;;;;;;;4.18;2.90;;;;;;;;;;5090970;28;20322;-46
2023/02/06 06:49:58;;;;;;;4.63;3.47;;;;;;;;;;5090511;28;20101;-45
2023/02/06 06:52:24;;;;;;;4.25;3.10;;;;;;;;;;5090875;28;20119;-45
2023/02/06 06:54:50;;;;;;;4.45;3.30;;;;;;;;;;5090940;28;20028;-49
2023/02/06 06:57:16;;;;;;;4.53;3.22;;;;;;;;;;5090888;28;20027;-47
2023/02/06 06:59:42;;;;;;;5.38;3.83;;;;;;;;;;5088593;28;20067;-51
2023/02/06 07:02:09;;;;;;;6.90;4.53;;;;;;;;;;5091153;28;20046;-47
2023/02/06 07:04:35;;;;;;;7.30;3.97;;;;;;;;;;5091792;28;20020;-51
2023/02/06 07:07:01;;;;;;;5.05;3.60;;;;;;;;;;5091965;28;20384;-48
2023/02/06 07:09:27;;;;;;;4.78;3.50;;;;;;;;;;5091847;28;20135;-48
2023/02/06 07:11:53;;;;;;;5.75;3.75;;;;;;;;;;5091666;28;20478;-50
2023/02/06 07:14:19;;;;;;;5.75;3.70;;;;;;;;;;5090951;28;20075;-49
2023/02/06 07:16:45;;;;;;;5.65;3.72;;;;;;;;;;5091542;28;20024;-49
2023/02/06 07:19:11;;;;;;;4.75;3.65;;;;;;;;;;5091192;28;20058;-52
2023/02/06 07:21:38;;;;;;;4.30;3.17;;;;;;;;;;5091288;28;20030;-49
2023/02/06 07:24:04;;;;;;;4.68;3.60;;;;;;;;;;5091596;28;20023;-48
2023/02/06 07:26:31;;;;;;;4.75;3.33;;;;;;;;;;5091584;28;20031;-49
2023/02/06 07:28:57;;;;;;;3.92;3.10;;;;;;;;;;5091774;28;20479;-48
2023/02/06 07:31:23;;;;;;;5.30;3.72;;;;;;;;;;5090949;28;20092;-49
2023/02/06 07:33:49;;;;;;;4.93;3.55;;;;;;;;;;5091621;28;20499;-51
2023/02/06 07:36:17;;;;;;;3.70;2.95;;;;;;;;;;5091464;28;20405;-50
2023/02/06 07:38:43;;;;;;;4.22;3.00;;;;;;;;;;5091174;28;20088;-48
2023/02/06 07:41:09;;;;;;;4.15;2.88;;;;;;;;;;5091213;28;20107;-48
2023/02/06 07:43:35;;;;;;;4.00;3.03;;;;;;;;;;5091049;28;20035;-51
2023/02/06 07:46:03;;;;;;;5.18;3.90;;;;;;;;;;5091199;28;20478;-49
2023/02/06 07:48:29;;;;;;;3.45;2.78;;;;;;;;;;5090091;28;20067;-50
2023/02/06 07:50:55;;;;;;;5.28;3.55;;;;;;;;;;5091259;28;20562;-49
2023/02/06 07:53:21;;;;;;;3.05;2.75;;;;;;;;;;5089963;28;20058;-48
2023/02/06 07:55:47;;;;;;;3.97;2.80;;;;;;;;;;5089521;28;20684;-50
2023/02/06 07:58:14;;;;;;;3.80;2.65;;;;;;;;;;5089260;28;20074;-49
2023/02/06 08:00:40;;;;;;;3.75;2.90;;;;;;;;;;5089682;28;20476;-48
2023/02/06 08:03:07;;;;;;;2.97;2.58;;;;;;;;;;5089343;28;20031;-48
2023/02/06 08:05:33;;;;;;;2.47;2.17;;;;;;;;;;5089474;28;20039;-46
2023/02/06 08:07:59;;;;;;;3.10;2.72;;;;;;;;;;5085718;28;20012;-46
2023/02/06 08:10:25;;;;;;;3.42;2.90;;;;;;;;;;5090437;28;20059;-44
2023/02/06 08:12:51;;;;;;;3.08;2.58;;;;;;;;;;5088510;28;20024;-47
2023/02/06 08:15:17;;;;;;;7.32;4.43;;;;;;;;;;5090430;28;20036;-47
2023/02/06 08:17:43;;;;;;;8.50;5.45;;;;;;;;;;5089332;28;20078;-47
2023/02/06 08:20:10;;;;;;;8.60;5.15;;;;;;;;;;5088745;28;20471;-47
2023/02/06 08:22:37;;;;;;;6.68;4.80;;;;;;;;;;5089881;28;20059;-48
2023/02/06 08:25:04;;;;;;;5.65;4.05;;;;;;;;;;5089046;28;20036;-47
2023/02/06 08:27:30;;;;;;;5.20;3.67;;;;;;;;;;5087166;28;20027;-46
2023/02/06 08:29:58;;;;;;;4.55;3.42;;;;;;;;;;5088758;28;20031;-48
2023/02/06 08:32:25;;;;;;;4.40;3.35;;;;;;;;;;5090320;28;20059;-45
2023/02/06 08:34:51;;;;;;;4.40;2.90;;;;;;;;;;5090073;28;20495;-47
2023/02/06 08:37:17;;;;;;;4.07;3.15;;;;;;;;;;5089762;28;20024;-47
2023/02/06 08:39:42;;;;;;;5.28;2.67;;;;;;;;;;5089594;28;20032;-48
2023/02/06 08:42:08;;;;;;;4.82;2.67;;;;;;;;;;5089362;28;20024;-45
2023/02/06 08:44:34;;;;;;;3.70;2.70;;;;;;;;;;5089777;28;20095;-48
2023/02/06 08:47:00;;;;;;;4.32;2.83;;;;;;;;;;5089650;28;20510;-46
2023/02/06 08:49:26;;;;;;;3.30;3.00;;;;;;;;;;5089647;28;20036;-46
2023/02/06 08:51:53;;;;;;;3.15;2.67;;;;;;;;;;5089927;28;20089;-48
2023/02/06 08:54:23;;;;;;;3.03;2.50;;;;;;;;;;5089212;28;20110;-46
2023/02/06 08:56:50;;;;;;;3.10;2.58;;;;;;;;;;5089583;28;20020;-46
2023/02/06 08:59:18;;;;;;;3.78;2.35;;;;;;;;;;5088100;28;20024;-46
2023/02/06 09:01:44;;;;;;;2.80;2.50;;;;;;;;;;5089029;28;20020;-45
2023/02/06 09:04:11;;;;;;;3.40;2.55;;;;;;;;;;5088497;28;20025;-47
2023/02/06 09:06:38;;;;;;;2.97;2.25;;;;;;;;;;5088100;28;20092;-47
2023/02/06 09:09:05;;;;;;;3.75;2.60;;;;;;;;;;5092042;28;20096;-45
2023/02/06 09:11:31;;;;;;;3.80;2.53;;;;;;;;;;5089189;28;20024;-47
2023/02/06 09:13:59;;;;;;;3.47;2.50;;;;;;;;;;5089311;28;20040;-47
2023/02/06 09:16:28;;;;;;;2.85;2.42;;;;;;;;;;5089657;28;20024;-45
2023/02/06 09:18:54;;;;;;;2.80;2.20;;;;;;;;;;5085159;28;20085;-45
2023/02/06 09:21:22;;;;;;;3.92;2.40;;;;;;;;;;5082361;28;20493;-48
2023/02/06 09:23:53;;;;;;;2.95;2.30;;;;;;;;;;5089475;28;20036;-48
2023/02/06 09:26:22;;;;;;;2.30;2.00;;;;;;;;;;5088263;28;20028;-46
2023/02/06 09:28:51;;;;;;;2.35;2.13;;;;;;;;;;5069813;28;21095;-47
2023/02/06 09:31:17;;;;;;;3.28;2.60;;;;;;;;;;5089154;28;20024;-46
2023/02/06 09:33:43;;;;;;;2.95;2.58;;;;;;;;;;5088542;28;20111;-45
2023/02/06 09:36:13;;;;;;;2.53;2.20;;;;;;;;;;5092132;28;20034;-50
2023/02/06 09:38:40;;;;;;;3.47;2.50;;;;;;;;;;5093595;28;20082;-46
2023/02/06 09:41:12;;;;;;;3.42;2.70;;;;;;;;;;5086866;28;20020;-45
2023/02/06 09:43:40;;;;;;;3.38;3.00;;;;;;;;;;5087215;28;20038;-46
2023/02/06 09:46:09;;;;;;;5.95;2.85;;;;;;;;;;5089979;28;20432;-47
2023/02/06 09:48:37;;;;;;;4.18;3.60;;;;;;;;;;5089728;28;20028;-49
2023/02/06 09:51:27;;;;;;;5.38;3.67;;;;;;;;;;5089557;28;20067;-48
2023/02/06 09:53:53;;;;;;;3.28;2.60;;;;;;;;;;5060887;28;20036;-45
2023/02/06 09:56:37;;;;;;;3.55;2.60;;;;;;;;;;5089458;28;20024;-46
2023/02/06 09:59:15;;;;;;;2.80;2.45;;;;;;;;;;5089503;28;20028;-48
2023/02/06 10:01:41;;;;;;;4.28;2.60;;;;;;;;;;5089537;28;20030;-48
2023/02/06 10:04:26;;;;;;;2.92;2.55;;;;;;;;;;5088693;28;20050;-45
2023/02/06 10:06:53;;;;;;;2.63;2.05;;;;;;;;;;5085076;28;20039;-47
2023/02/06 10:09:21;;;;;;;4.10;3.03;;;;;;;;;;5083989;28;20028;-45
2023/02/06 10:11:53;;;;;;;2.95;2.65;;;;;;;;;;5084588;28;20514;-46
2023/02/06 10:14:38;;;;;;;5.93;3.10;;;;;;;;;;5083058;28;20035;-48
2023/02/06 10:17:05;;;;;;;6.68;3.60;;;;;;;;;;5067288;28;20419;-47
2023/02/06 10:19:31;;;;;;;4.70;3.22;;;;;;;;;;5086725;28;20028;-47
2023/02/06 10:22:04;;;;;;;5.60;3.40;;;;;;;;;;5085684;28;20044;-49
2023/02/06 10:24:39;;;;;;;4.43;3.30;;;;;;;;;;5086964;28;20556;-47
2023/02/06 10:27:09;;;;;;;5.90;3.88;;;;;;;;;;5086059;28;20111;-48
2023/02/06 10:29:35;;;;;;;5.68;3.97;;;;;;;;;;5086040;28;20513;-47
2023/02/06 10:32:25;;;;;;;5.70;4.05;;;;;;;;;;5086280;28;20114;-47
2023/02/06 10:35:00;;;;;;;5.82;4.32;;;;;;;;;;5086127;28;20038;-50
2023/02/06 10:37:26;;;;;;;6.05;4.43;;;;;;;;;;5086380;28;20032;-49
2023/02/06 10:40:11;;;;;;;4.72;3.58;;;;;;;;;;5086335;28;20402;-49
2023/02/06 10:42:50;;;;;;;4.65;3.50;;;;;;;;;;5086150;28;20033;-50
2023/02/06 10:45:17;;;;;;;4.82;3.38;;;;;;;;;;5086127;28;20518;-47
2023/02/06 10:48:02;;;;;;;4.88;3.80;;;;;;;;;;5085956;28;20043;-46
2023/02/06 10:50:31;;;;;;;4.20;3.58;;;;;;;;;;5086178;28;20039;-47
2023/02/06 10:52:59;;;;;;;5.13;4.00;;;;;;;;;;5084755;28;20081;-49
2023/02/06 10:55:26;;;;;;;5.53;3.90;;;;;;;;;;5085503;28;20070;-46
2023/02/06 10:58:11;;;;;;;7.15;5.32;;;;;;;;;;5083031;28;20546;-46
2023/02/06 11:00:38;;;;;;;7.43;5.55;;;;;;;;;;5080536;28;20395;-48
2023/02/06 11:03:06;;;;;;;8.63;5.70;;;;;;;;;;5085664;28;20035;-48
2023/02/06 11:05:32;;;;;;;7.63;4.97;;;;;;;;;;5087574;28;20024;-48
2023/02/06 11:08:01;;;;;;;6.78;5.28;;;;;;;;;;5101036;28;20032;-49
2023/02/06 11:10:27;;;;;;;5.63;4.55;;;;;;;;;;5107542;28;20097;-46
2023/02/06 11:13:04;;;;;;;6.00;4.63;;;;;;;;;;5107375;28;20123;-46
2023/02/06 11:15:33;;;;;;;5.07;3.85;;;;;;;;;;5081199;28;20517;-47
2023/02/06 11:18:01;;;;;;;5.68;4.13;;;;;;;;;;5087112;28;20043;-49
2023/02/06 11:20:30;;;;;;;7.60;5.30;;;;;;;;;;5083058;28;20104;-49
2023/02/06 11:22:57;;;;;;;7.70;5.30;;;;;;;;;;5085075;28;20039;-49
2023/02/06 11:25:32;;;;;;;5.57;4.28;;;;;;;;;;5090782;28;20840;-46
2023/02/06 11:27:59;;;;;;;6.10;4.43;;;;;;;;;;5090967;28;20028;-47
2023/02/06 11:30:33;;;;;;;6.75;4.78;;;;;;;;;;5089211;28;20036;-50
2023/02/06 11:33:18;;;;;;;4.75;3.60;;;;;;;;;;5086511;28;20028;-49
2023/02/06 11:35:49;;;;;;;5.05;3.83;;;;;;;;;;5089159;28;20036;-48
2023/02/06 11:38:15;;;;;;;6.43;4.47;;;;;;;;;;5089607;28;20093;-46
2023/02/06 11:40:41;;;;;;;5.40;4.35;;;;;;;;;;5089454;28;20032;-51
2023/02/06 11:43:14;;;;;;;6.18;4.50;;;;;;;;;;5089210;28;20121;-49
2023/02/06 11:45:40;;;;;;;5.18;3.97;;;;;;;;;;5089164;28;20549;-49
2023/02/06 11:48:06;;;;;;;4.28;3.50;;;;;;;;;;5089398;28;20024;-47
2023/02/06 11:50:34;;;;;;;5.45;4.20;;;;;;;;;;5089651;28;20538;-49
2023/02/06 11:53:08;;;;;;;5.55;4.03;;;;;;;;;;5089951;28;20036;-49
2023/02/06 11:55:34;;;;;;;;;;;;;;;;;;5089355;28;20030;-51
2023/02/06 11:58:02;;;;;;;5.05;4.03;;;;;;;;;;5087641;28;19912;-49
2023/02/06 12:00:29;;;;;;;4.05;3.10;;;;;;;;;;5088395;28;20039;-48
2023/02/06 12:02:55;;;;;;;4.28;3.15;;;;;;;;;;5089079;28;20028;-47
2023/02/06 12:05:25;;;;;;;4.15;3.15;;;;;;;;;;5088992;28;20028;-49
2023/02/06 12:08:04;;;;;;;4.25;3.08;;;;;;;;;;5088742;28;20024;-47
2023/02/06 12:10:33;;;;;;;3.85;2.72;;;;;;;;;;5088744;28;20107;-47
2023/02/06 12:13:07;;;;;;;3.50;2.58;;;;;;;;;;5088263;28;20061;-49
2023/02/06 12:15:33;;;;;;;;;;;;;;;;;;5083695;28;20110;-49
2023/02/06 12:18:02;;;;;;;3.05;2.45;;;;;;;;;;5089582;28;20020;-48
2023/02/06 12:20:30;;;;;;;2.63;2.25;;;;;;;;;;5087751;28;20550;-47
2023/02/06 12:23:15;;;;;;;2.45;2.00;;;;;;;;;;5086691;28;20028;-48
2023/02/06 12:25:42;;;;;;;2.33;2.05;;;;;;;;;;5085615;28;20058;-50
2023/02/06 12:28:11;;;;;;;2.30;1.88;;;;;;;;;;5087053;28;20502;-49
2023/02/06 12:30:57;;;;;;;2.40;2.20;;;;;;;;;;5086947;28;20063;-47
2023/02/06 12:33:32;;;;;;;2.25;2.05;;;;;;;;;;5086512;28;20411;-47
2023/02/06 12:36:02;;;;;;;3.10;2.10;;;;;;;;;;5087441;28;20028;-49
2023/02/06 12:38:37;;;;;;;2.30;1.90;;;;;;;;;;5083622;28;20210;-46
2023/02/06 12:41:03;;;;;;;2.55;1.80;;;;;;;;;;5083993;28;20036;-46
2023/02/06 12:43:30;;;;;;;2.60;1.85;;;;;;;;;;5079244;28;20035;-49
2023/02/06 12:45:57;;;;;;;2.28;1.95;;;;;;;;;;5086117;28;20035;-49
2023/02/06 12:48:24;;;;;;;2.58;2.10;;;;;;;;;;5086011;28;20146;-46
2023/02/06 12:51:00;;;;;;;2.55;2.20;;;;;;;;;;5085811;28;20081;-48
2023/02/06 12:53:28;;;;;;;2.00;1.80;;;;;;;;;;5085437;28;20059;-47
2023/02/06 12:55:57;;;;;;;2.22;2.00;;;;;;;;;;5067781;28;20032;-45
2023/02/06 12:58:23;;;;;;;2.08;1.85;;;;;;;;;;5085864;28;20028;-47
2023/02/06 13:00:52;;;;;;;1.73;1.63;;;;;;;;;;5085960;28;20050;-47
2023/02/06 13:03:18;;;;;;;2.38;1.58;;;;;;;;;;5085812;28;20487;-46
2023/02/06 13:05:46;;;;;;;2.10;1.60;;;;;;;;;;5085789;28;20038;-45
2023/02/06 13:08:14;;;;;;;2.45;1.70;;;;;;;;;;5085792;28;20456;-46
2023/02/06 13:10:42;;;;;;;2.10;1.70;;;;;;;;;;5085856;28;20035;-45
2023/02/06 13:13:23;;;;;;;2.10;1.70;;;;;;;;;;5085422;28;20074;-46
2023/02/06 13:15:53;;;;;;;2.00;1.80;;;;;;;;;;5085253;28;20028;-45
2023/02/06 13:18:38;;;;;;;1.75;1.60;;;;;;;;;;5086017;28;20024;-46
2023/02/06 13:21:18;;;;;;;2.40;2.03;;;;;;;;;;5086437;28;20039;-46
2023/02/06 13:23:51;;;;;;;2.33;1.83;;;;;;;;;;5087108;28;20036;-47
2023/02/06 13:26:17;;;;;;;2.38;1.95;;;;;;;;;;5086529;28;20024;-46
2023/02/06 13:28:45;;;;;;;2.63;1.70;;;;;;;;;;5087016;28;20036;-45
2023/02/06 13:31:25;;;;;;;1.65;1.52;;;;;;;;;;5085913;28;20053;-48
2023/02/06 13:33:55;;;;;;;2.60;2.10;;;;;;;;;;5077081;28;20038;-48
2023/02/06 13:36:41;;;;;;;3.10;2.40;;;;;;;;;;5086889;28;20024;-45
2023/02/06 13:39:14;;;;;;;3.20;2.00;;;;;;;;;;5070603;28;20059;-46
2023/02/06 13:41:43;;;;;;;6.30;2.97;;;;;;;;;;5074900;28;20020;-46
2023/02/06 13:44:18;;;;;;;6.85;3.20;;;;;;;;;;5084462;28;20048;-44
2023/02/06 13:47:05;;;;;;;16.25;6.30;;;;;;;;;;5082249;28;20073;-47
2023/02/06 13:49:40;;;;;;;9.98;4.38;;;;;;;;;;5085615;28;20040;-48
2023/02/06 13:52:18;;;;;;;10.27;5.25;;;;;;;;;;5077586;28;20032;-49
2023/02/06 13:54:54;;;;;;;17.00;7.03;;;;;;;;;;5085303;28;20099;-45
2023/02/06 13:57:50;;;;;;;11.90;5.35;;;;;;;;;;5086023;28;20592;-47
2023/02/06 14:00:21;;;;;;;11.88;4.93;;;;;;;;;;5086394;28;20028;-46
2023/02/06 14:02:50;;;;;;;12.07;5.10;;;;;;;;;;5086566;28;20075;-49
2023/02/06 14:05:19;;;;;;;12.88;6.00;;;;;;;;;;5085963;28;20028;-47
2023/02/06 14:08:00;;;;;;;11.80;5.43;;;;;;;;;;5085270;28;20028;-47
2023/02/06 14:13:21;;;;;;;10.30;4.47;;;;;;;;;;5074325;28;20071;-47
2023/02/06 14:16:16;;;;;;;7.38;3.90;;;;;;;;;;5066025;28;20028;-49
2023/02/06 14:19:00;;;;;;;6.47;3.75;;;;;;;;;;5028737;28;20041;-48
2023/02/06 14:21:36;;;;;;;4.43;3.10;;;;;;;;;;5077623;28;20028;-51
2023/02/06 14:24:14;;;;;;;5.15;2.70;;;;;;;;;;5085728;28;20020;-47
2023/02/06 14:26:46;;;;;;;4.18;2.58;;;;;;;;;;5084932;28;20024;-48
2023/02/06 14:29:23;;;;;;;3.35;2.17;;;;;;;;;;5085239;28;20032;-50
2023/02/06 14:31:51;;;;;;;3.45;2.40;;;;;;;;;;5086128;28;20036;-46
2023/02/06 14:34:36;;;;;;;3.40;2.38;;;;;;;;;;5084685;28;20035;-48
2023/02/06 14:37:02;;;;;;;2.90;2.38;;;;;;;;;;5085864;28;20064;-45
2023/02/06 14:39:28;;;;;;;3.17;2.00;;;;;;;;;;5084807;28;20032;-49
2023/02/06 14:41:55;;;;;;;2.28;1.80;;;;;;;;;;5085486;28;20090;-47
2023/02/06 14:44:23;;;;;;;2.50;1.98;;;;;;;;;;5086032;28;20103;-48
2023/02/06 14:46:49;;;;;;;2.35;1.90;;;;;;;;;;5084108;28;20032;-46
2023/02/06 14:49:18;;;;;;;2.63;2.30;;;;;;;;;;5083160;28;20427;-45
2023/02/06 14:51:47;;;;;;;2.38;1.80;;;;;;;;;;5087353;28;20066;-48
2023/02/06 14:54:29;;;;;;;2.67;2.22;;;;;;;;;;5086660;28;20100;-47
2023/02/06 14:56:56;;;;;;;3.17;2.38;;;;;;;;;;5089036;28;20499;-48
2023/02/06 14:59:22;;;;;;;4.35;2.83;;;;;;;;;;5084071;28;20535;-46
2023/02/06 15:01:49;;;;;;;3.40;2.42;;;;;;;;;;5083869;28;20052;-45
2023/02/06 15:04:16;;;;;;;3.33;2.28;;;;;;;;;;5090889;28;20058;-47
2023/02/06 15:06:49;;;;;;;3.17;2.42;;;;;;;;;;5075888;28;20065;-46
2023/02/06 15:09:45;;;;;;;3.08;2.20;;;;;;;;;;5091634;28;20047;-46
2023/02/06 15:12:23;;;;;;;5.15;2.58;;;;;;;;;;5074166;28;20058;-47
2023/02/06 15:14:52;;;;;;;3.75;2.33;;;;;;;;;;5090100;28;20036;-46
2023/02/06 15:17:22;;;;;;;3.50;2.80;;;;;;;;;;5089294;28;20032;-50
2023/02/06 15:19:49;;;;;;;2.95;2.53;;;;;;;;;;5089224;28;20031;-46
2023/02/06 15:22:20;;;;;;;3.53;2.63;;;;;;;;;;5089477;28;20020;-46
2023/02/06 15:25:05;;;;;;;3.90;2.55;;;;;;;;;;5089789;28;20107;-47
2023/02/06 15:27:38;;;;;;;3.95;2.85;;;;;;;;;;5087808;28;20649;-48
2023/02/06 15:30:30;;;;;;;2.63;2.30;;;;;;;;;;5079232;28;20028;-49
2023/02/06 15:32:56;;;;;;;4.10;2.67;;;;;;;;;;5087241;28;20044;-47
2023/02/06 15:35:27;;;;;;;2.65;2.22;;;;;;;;;;5088896;28;20483;-46
2023/02/06 15:37:55;;;;;;;2.60;2.10;;;;;;;;;;5085105;28;20028;-46
2023/02/06 15:40:29;;;;;;;3.22;2.05;;;;;;;;;;5087833;28;20493;-49
2023/02/06 15:42:56;;;;;;;2.67;2.10;;;;;;;;;;5101798;28;20061;-48
2023/02/06 15:45:30;;;;;;;2.40;2.10;;;;;;;;;;5109685;28;20030;-49
2023/02/06 15:47:56;;;;;;;1.75;1.65;;;;;;;;;;5096101;28;20115;-47
2023/02/06 15:50:27;;;;;;;2.75;2.03;;;;;;;;;;5088882;28;20450;-48
2023/02/06 15:52:53;;;;;;;3.80;2.92;;;;;;;;;;5088861;28;20498;-51
2023/02/06 15:55:31;;;;;;;3.53;2.70;;;;;;;;;;5088915;28;20028;-49
2023/02/06 15:57:58;;;;;;;3.33;2.72;;;;;;;;;;5088200;28;20030;-47
2023/02/06 16:00:34;;;;;;;2.92;2.25;;;;;;;;;;5085897;28;20032;-48
2023/02/06 16:03:02;;;;;;;7.35;4.63;;;;;;;;;;5087341;28;20020;-49
2023/02/06 16:05:32;;;;;;;7.38;4.55;;;;;;;;;;5088859;28;20384;-48
2023/02/06 16:07:59;;;;;;;6.55;3.72;;;;;;;;;;5087867;28;20106;-49
2023/02/06 16:10:29;;;;;;;6.15;3.45;;;;;;;;;;5100987;28;20063;-48
2023/02/06 16:12:57;;;;;;;5.90;4.18;;;;;;;;;;5100955;28;20028;-47
2023/02/06 16:15:24;;;;;;;5.38;3.60;;;;;;;;;;5087889;28;20086;-46
2023/02/06 16:17:51;;;;;;;6.32;3.72;;;;;;;;;;5088905;28;20063;-48
2023/02/06 16:20:32;;;;;;;5.85;3.80;;;;;;;;;;5088318;28;20464;-50
2023/02/06 16:23:16;;;;;;;6.57;3.97;;;;;;;;;;5088265;28;20073;-47
2023/02/06 16:25:43;;;;;;;;;;;;;;;;;;5089850;28;20043;-47
2023/02/06 16:28:21;;;;;;;5.40;3.78;;;;;;;;;;5099640;28;19907;-46
2023/02/06 16:30:53;;;;;;;7.47;4.07;;;;;;;;;;5087497;28;20019;-48
2023/02/06 16:33:28;;;;;;;6.13;3.85;;;;;;;;;;5087887;28;20077;-47
2023/02/06 16:35:54;;;;;;;6.45;3.95;;;;;;;;;;5086459;28;20036;-46
2023/02/06 16:38:20;;;;;;;5.35;3.58;;;;;;;;;;5088179;28;20054;-49
2023/02/06 16:40:49;;;;;;;7.65;3.97;;;;;;;;;;5088228;28;20110;-49
2023/02/06 16:43:16;;;;;;;6.57;3.65;;;;;;;;;;5088162;28;20466;-48
2023/02/06 16:45:42;;;;;;;5.68;3.97;;;;;;;;;;5085766;28;20026;-48
2023/02/06 16:48:11;;;;;;;5.90;3.63;;;;;;;;;;5087999;28;20103;-46
2023/02/06 16:50:38;;;;;;;7.28;4.13;;;;;;;;;;5086590;28;20434;-51
2023/02/06 16:53:04;;;;;;;8.48;4.97;;;;;;;;;;5087909;28;20055;-47
2023/02/06 16:55:30;;;;;;;9.95;5.15;;;;;;;;;;5087915;28;20035;-46
2023/02/06 16:57:58;;;;;;;8.93;4.97;;;;;;;;;;5087448;28;20578;-47
2023/02/06 17:00:25;;;;;;;7.60;4.10;;;;;;;;;;5085800;28;20031;-48
2023/02/06 17:02:52;;;;;;;11.27;5.72;;;;;;;;;;5087838;28;20031;-47
2023/02/06 17:05:20;;;;;;;8.25;4.93;;;;;;;;;;5087695;28;20065;-47
2023/02/06 17:07:48;;;;;;;7.63;4.63;;;;;;;;;;5087015;28;20028;-46
2023/02/06 17:10:15;;;;;;;8.25;4.65;;;;;;;;;;5087734;28;20050;-47
2023/02/06 17:12:43;;;;;;;6.90;4.07;;;;;;;;;;5085907;28;20035;-47
2023/02/06 17:15:09;;;;;;;5.28;3.40;;;;;;;;;;5086263;28;20028;-46
2023/02/06 17:17:35;;;;;;;5.80;3.65;;;;;;;;;;5088102;28;20036;-48
2023/02/06 17:20:02;;;;;;;5.05;3.60;;;;;;;;;;5087272;28;20024;-49
2023/02/06 17:22:27;;;;;;;5.20;3.90;;;;;;;;;;5087401;28;20096;-46
2023/02/06 17:24:53;;;;;;;6.13;4.40;;;;;;;;;;5087219;28;20483;-46
2023/02/06 17:27:20;;;;;;;6.75;4.28;;;;;;;;;;5087548;28;20035;-47
2023/02/06 17:29:47;;;;;;;4.72;3.40;;;;;;;;;;5087365;28;20020;-47
2023/02/06 17:32:14;;;;;;;4.18;3.35;;;;;;;;;;5083977;28;20608;-48
2023/02/06 17:34:40;;;;;;;4.90;3.65;;;;;;;;;;5086308;28;20038;-46
2023/02/06 17:37:07;;;;;;;5.15;3.30;;;;;;;;;;5086039;28;20027;-48
2023/02/06 17:39:33;;;;;;;4.82;3.10;;;;;;;;;;5087093;28;20117;-47
2023/02/06 17:42:00;;;;;;;5.03;3.30;;;;;;;;;;5086263;28;20115;-49
2023/02/06 17:44:27;;;;;;;9.93;5.35;;;;;;;;;;5087749;28;20028;-49
2023/02/06 17:46:53;;;;;;;9.60;5.90;;;;;;;;;;5106738;28;20059;-49
2023/02/06 17:49:19;;;;;;;11.75;5.43;;;;;;;;;;5096122;28;20118;-48
2023/02/06 17:51:45;;;;;;;8.57;4.97;;;;;;;;;;5066702;28;20585;-48
2023/02/06 17:54:12;;;;;;;8.35;4.32;;;;;;;;;;5080711;28;20111;-48
2023/02/06 17:56:38;;;;;;;6.20;4.00;;;;;;;;;;5084244;28;20031;-48
2023/02/06 17:59:04;;;;;;;8.20;4.55;;;;;;;;;;5067043;28;20438;-49
2023/02/06 18:01:30;;;;;;;6.70;4.20;;;;;;;;;;5085270;28;20039;-51
2023/02/06 18:03:59;;;;;;;7.25;4.68;;;;;;;;;;5085290;28;20147;-49
2023/02/06 18:06:26;;;;;;;7.50;4.32;;;;;;;;;;5085900;28;20065;-50
2023/02/06 18:08:52;;;;;;;9.13;5.57;;;;;;;;;;5085498;28;20028;-47
2023/02/06 18:11:20;;;;;;;9.77;5.75;;;;;;;;;;5085260;28;20153;-49
2023/02/06 18:13:47;;;;;;;10.32;6.35;;;;;;;;;;5082692;28;20059;-49
2023/02/06 18:16:15;;;;;;;11.55;6.38;;;;;;;;;;5083149;28;20489;-48
2023/02/06 18:18:41;;;;;;;9.98;6.20;;;;;;;;;;5084901;28;20020;-49
2023/02/06 18:21:07;;;;;;;8.98;5.45;;;;;;;;;;5084984;28;20032;-47
2023/02/06 18:23:33;;;;;;;8.65;5.40;;;;;;;;;;5066936;28;20154;-49
2023/02/06 18:26:01;;;;;;;7.47;4.68;;;;;;;;;;5085080;28;20070;-48
2023/02/06 18:28:27;;;;;;;6.78;4.95;;;;;;;;;;5084273;28;20020;-49
2023/02/06 18:30:53;;;;;;;5.80;4.03;;;;;;;;;;5085267;28;20040;-48
2023/02/06 18:33:19;;;;;;;5.43;4.10;;;;;;;;;;5084824;28;20024;-51
2023/02/06 18:35:45;;;;;;;6.78;4.13;;;;;;;;;;5085029;28;20384;-48
2023/02/06 18:38:14;;;;;;;5.07;3.70;;;;;;;;;;5083975;28;20521;-48
2023/02/06 18:40:44;;;;;;;5.32;3.95;;;;;;;;;;5085792;28;20043;-49
2023/02/06 18:43:10;;;;;;;6.57;4.82;;;;;;;;;;5067013;28;20024;-48
2023/02/06 18:45:37;;;;;;;6.57;4.93;;;;;;;;;;5085804;28;20055;-49
2023/02/06 18:48:05;;;;;;;6.38;4.72;;;;;;;;;;5084423;28;20024;-51
2023/02/06 18:50:31;;;;;;;6.65;4.53;;;;;;;;;;5080918;28;20031;-49
2023/02/06 18:52:57;;;;;;;5.32;3.67;;;;;;;;;;5080356;28;20114;-49
2023/02/06 18:55:23;;;;;;;5.32;3.20;;;;;;;;;;5084578;28;20036;-50
2023/02/06 18:57:50;;;;;;;4.25;2.88;;;;;;;;;;5084722;28;20048;-49
2023/02/06 19:00:17;;;;;;;4.13;3.00;;;;;;;;;;5084143;28;20046;-49
2023/02/06 19:02:46;;;;;;;4.03;3.05;;;;;;;;;;5081545;28;20130;-49
2023/02/06 19:05:13;;;;;;;4.35;3.10;;;;;;;;;;5081906;28;20414;-49
2023/02/06 19:07:39;;;;;;;4.40;3.15;;;;;;;;;;5081398;28;20024;-47
2023/02/06 19:10:08;;;;;;;5.63;3.10;;;;;;;;;;5082565;28;20058;-49
2023/02/06 19:12:37;;;;;;;5.13;3.42;;;;;;;;;;5083142;28;20387;-50
2023/02/06 19:15:04;;;;;;;3.53;2.55;;;;;;;;;;5082790;28;20074;-49
2023/02/06 19:17:30;;;;;;;4.38;2.45;;;;;;;;;;5083275;28;20542;-49
2023/02/06 19:19:56;;;;;;;2.65;2.00;;;;;;;;;;5082653;28;20036;-52
2023/02/06 19:22:22;;;;;;;3.10;2.30;;;;;;;;;;5081944;28;20445;-51
2023/02/06 19:24:51;;;;;;;3.20;2.15;;;;;;;;;;5081764;28;20039;-49
2023/02/06 19:27:17;;;;;;;3.35;1.85;;;;;;;;;;5079581;28;20157;-49
2023/02/06 19:29:43;;;;;;;2.42;1.92;;;;;;;;;;5082402;28;20067;-48
2023/02/06 19:32:10;;;;;;;2.72;1.85;;;;;;;;;;5082902;28;20028;-48
2023/02/06 19:34:37;;;;;;;2.10;1.80;;;;;;;;;;5083818;28;20040;-48
2023/02/06 19:37:04;;;;;;;2.90;1.85;;;;;;;;;;5083459;28;20028;-47
2023/02/06 19:39:32;;;;;;;2.50;2.00;;;;;;;;;;5082557;28;20036;-49
2023/02/06 19:41:59;;;;;;;2.05;1.60;;;;;;;;;;5082763;28;20154;-49
2023/02/06 19:44:27;;;;;;;1.55;1.45;;;;;;;;;;5067912;28;20024;-51
2023/02/06 19:46:53;;;;;;;2.92;1.80;;;;;;;;;;5068244;28;20024;-52
2023/02/06 19:49:19;;;;;;;2.42;1.73;;;;;;;;;;5086581;28;20098;-49
2023/02/06 19:51:45;;;;;;;1.60;1.50;;;;;;;;;;5086258;28;20028;-51
2023/02/06 19:54:11;;;;;;;2.13;1.88;;;;;;;;;;5086093;28;20086;-51
2023/02/06 19:56:39;;;;;;;2.17;1.45;;;;;;;;;;5067803;28;20058;-48
2023/02/06 19:59:07;;;;;;;2.25;1.70;;;;;;;;;;5086749;28;20051;-51
2023/02/06 20:01:34;;;;;;;2.10;1.58;;;;;;;;;;5086399;28;20487;-50
2023/02/06 20:04:02;;;;;;;2.17;1.85;;;;;;;;;;5086285;28;20257;-49